Time;durP1;ratioP1;P1;durP2;ratioP2;P2;SDS_P1;SDS_P2;PMS_P1;PMS_P2;Temp;Humidity;BMP_temperature;BMP_pressure;BME280_temperature;BME280_humidity;BME280_pressure;Samples;Min_cycle;Max_cycle;Signal;HPM_P1;HPM_P2
2021/07/22 00:01:24;;;;;;;4.10;3.80;;;;;;;;;;5093863;28;20024;-60
2021/07/22 00:03:50;;;;;;;4.85;4.45;;;;;;;;;;5093887;28;20086;-60
2021/07/22 00:06:16;;;;;;;4.88;4.43;;;;;;;;;;5093715;28;20486;-60
2021/07/22 00:08:41;;;;;;;5.00;4.60;;;;;;;;;;5093389;28;20109;-60
2021/07/22 00:11:07;;;;;;;5.20;4.70;;;;;;;;;;5093946;28;20191;-60
2021/07/22 00:13:32;;;;;;;5.65;4.90;;;;;;;;;;5094047;28;20065;-60
2021/07/22 00:15:57;;;;;;;5.38;4.78;;;;;;;;;;5093190;28;20384;-60
2021/07/22 00:18:23;;;;;;;5.20;4.75;;;;;;;;;;5093752;28;20436;-60
2021/07/22 00:20:49;;;;;;;4.90;4.50;;;;;;;;;;5093399;28;20040;-60
2021/07/22 00:23:14;;;;;;;7.53;4.82;;;;;;;;;;5093668;28;20438;-60
2021/07/22 00:25:40;;;;;;;4.75;4.35;;;;;;;;;;5093222;28;20031;-60
2021/07/22 00:28:06;;;;;;;5.55;5.05;;;;;;;;;;5093394;28;20020;-60
2021/07/22 00:30:32;;;;;;;5.15;4.65;;;;;;;;;;5093664;28;20078;-60
2021/07/22 00:32:57;;;;;;;7.82;4.90;;;;;;;;;;5093204;28;20023;-60
2021/07/22 00:35:24;;;;;;;6.70;4.90;;;;;;;;;;5093474;28;20031;-60
2021/07/22 00:37:49;;;;;;;5.75;5.03;;;;;;;;;;5093610;28;20018;-60
2021/07/22 00:40:16;;;;;;;5.75;4.80;;;;;;;;;;5075248;28;20454;-60
2021/07/22 00:43:02;;;;;;;7.85;4.60;;;;;;;;;;5093267;28;20061;-60
2021/07/22 00:45:29;;;;;;;5.57;4.28;;;;;;;;;;5058786;28;20111;-60
2021/07/22 00:47:56;;;;;;;6.32;4.60;;;;;;;;;;5075273;28;20024;-60
2021/07/22 00:50:22;;;;;;;7.10;5.65;;;;;;;;;;5092828;28;20044;-60
2021/07/22 00:52:47;;;;;;;5.78;5.18;;;;;;;;;;5075115;28;20020;-60
2021/07/22 00:55:14;;;;;;;7.25;4.88;;;;;;;;;;5074853;28;20433;-60
2021/07/22 00:57:39;;;;;;;6.22;5.40;;;;;;;;;;5075049;28;20030;-60
2021/07/22 01:00:06;;;;;;;5.60;5.10;;;;;;;;;;5075151;28;20020;-60
2021/07/22 01:02:31;;;;;;;5.57;5.07;;;;;;;;;;5075197;28;20040;-60
2021/07/22 01:04:58;;;;;;;5.75;5.00;;;;;;;;;;5093229;28;20063;-60
2021/07/22 01:07:23;;;;;;;5.32;4.88;;;;;;;;;;5074931;28;20020;-60
2021/07/22 01:09:50;;;;;;;5.80;4.65;;;;;;;;;;5074766;28;20066;-60
2021/07/22 01:12:15;;;;;;;6.57;4.55;;;;;;;;;;5092522;28;20012;-60
2021/07/22 01:14:43;;;;;;;6.07;4.75;;;;;;;;;;5074882;28;20040;-61
2021/07/22 01:17:16;;;;;;;5.07;4.53;;;;;;;;;;5074727;28;20016;-60
2021/07/22 01:19:42;;;;;;;5.90;4.78;;;;;;;;;;5074879;28;20480;-60
2021/07/22 01:22:08;;;;;;;6.65;4.88;;;;;;;;;;5074853;28;20047;-60
2021/07/22 01:24:34;;;;;;;6.55;4.43;;;;;;;;;;5074810;28;20028;-61
2021/07/22 01:27:02;;;;;;;5.05;4.40;;;;;;;;;;5074634;28;20078;-60
2021/07/22 01:29:47;;;;;;;4.40;4.00;;;;;;;;;;5093066;28;20039;-64
2021/07/22 01:32:12;;;;;;;5.00;4.60;;;;;;;;;;5074525;28;20028;-64
2021/07/22 01:34:39;;;;;;;7.25;4.88;;;;;;;;;;5074715;28;20443;-64
2021/07/22 01:37:04;;;;;;;5.32;4.65;;;;;;;;;;5074621;28;20119;-64
2021/07/22 01:39:31;;;;;;;5.18;4.65;;;;;;;;;;5095545;28;20024;-64
2021/07/22 01:41:57;;;;;;;5.18;4.53;;;;;;;;;;5078103;28;20117;-64
2021/07/22 01:44:23;;;;;;;5.57;4.68;;;;;;;;;;5078082;28;20012;-64
2021/07/22 01:46:51;;;;;;;5.43;4.90;;;;;;;;;;5078141;28;20105;-64
2021/07/22 01:49:17;;;;;;;6.45;4.60;;;;;;;;;;5077714;28;20055;-65
2021/07/22 01:51:42;;;;;;;5.63;4.68;;;;;;;;;;5096386;28;20391;-64
2021/07/22 01:54:09;;;;;;;5.43;4.90;;;;;;;;;;5078121;28;20024;-64
2021/07/22 01:56:35;;;;;;;6.47;4.63;;;;;;;;;;5077897;28;20035;-64
2021/07/22 01:59:00;;;;;;;4.88;4.47;;;;;;;;;;5077818;28;20467;-60
2021/07/22 02:01:27;;;;;;;6.22;4.75;;;;;;;;;;5077897;28;20078;-60
2021/07/22 02:04:04;;;;;;;6.03;4.47;;;;;;;;;;5062838;28;20107;-60
2021/07/22 02:06:30;;;;;;;7.03;4.03;;;;;;;;;;5077551;28;20036;-60
2021/07/22 02:08:57;;;;;;;4.80;4.40;;;;;;;;;;5061538;28;20031;-59
2021/07/22 02:11:24;;;;;;;6.55;4.63;;;;;;;;;;5061585;28;20052;-60
2021/07/22 02:13:50;;;;;;;4.40;4.00;;;;;;;;;;5078102;28;20012;-60
2021/07/22 02:16:15;;;;;;;6.10;4.85;;;;;;;;;;5077551;28;20384;-64
2021/07/22 02:18:44;;;;;;;5.38;4.13;;;;;;;;;;5077634;28;20024;-65
2021/07/22 02:21:16;;;;;;;5.18;4.18;;;;;;;;;;5077648;28;20468;-65
2021/07/22 02:23:47;;;;;;;6.13;4.20;;;;;;;;;;5095910;28;20103;-65
2021/07/22 02:26:15;;;;;;;4.80;4.35;;;;;;;;;;5095874;28;20093;-60
2021/07/22 02:28:41;;;;;;;4.57;4.25;;;;;;;;;;5077662;28;20024;-60
2021/07/22 02:31:07;;;;;;;6.93;4.43;;;;;;;;;;5095418;28;20029;-60
2021/07/22 02:33:32;;;;;;;5.60;4.32;;;;;;;;;;5095568;28;20439;-60
2021/07/22 02:35:58;;;;;;;6.00;4.50;;;;;;;;;;5077398;28;20020;-61
2021/07/22 02:38:59;;;;;;;4.72;4.22;;;;;;;;;;5083081;28;20055;-61
2021/07/22 02:41:27;;;;;;;4.50;4.10;;;;;;;;;;5077222;28;20027;-68
2021/07/22 02:43:53;;;;;;;5.70;4.63;;;;;;;;;;5077310;28;20085;-69
2021/07/22 02:46:19;;;;;;;8.02;4.15;;;;;;;;;;5095296;28;20055;-69
2021/07/22 02:48:57;;;;;;;6.43;4.15;;;;;;;;;;5076597;28;20024;-67
2021/07/22 02:51:23;;;;;;;4.72;4.30;;;;;;;;;;5095220;28;20067;-65
2021/07/22 02:53:49;;;;;;;5.57;4.20;;;;;;;;;;5095201;28;20023;-65
2021/07/22 02:56:23;;;;;;;4.60;4.20;;;;;;;;;;5095036;28;20096;-61
2021/07/22 02:58:52;;;;;;;5.00;4.28;;;;;;;;;;5076523;28;20089;-60
2021/07/22 03:01:18;;;;;;;4.53;4.05;;;;;;;;;;5094356;28;20028;-60
2021/07/22 03:03:47;;;;;;;5.45;4.60;;;;;;;;;;5076816;28;20345;-60
2021/07/22 03:06:15;;;;;;;4.82;4.38;;;;;;;;;;5076462;28;20062;-60
2021/07/22 03:08:42;;;;;;;4.47;4.13;;;;;;;;;;5075913;28;20024;-60
2021/07/22 03:11:10;;;;;;;4.95;3.90;;;;;;;;;;5076576;28;20016;-60
2021/07/22 03:13:37;;;;;;;5.05;4.35;;;;;;;;;;5094606;28;20048;-60
2021/07/22 03:16:06;;;;;;;5.40;4.63;;;;;;;;;;5076405;28;20455;-60
2021/07/22 03:18:52;;;;;;;4.95;4.43;;;;;;;;;;5080075;28;20040;-60
2021/07/22 03:21:18;;;;;;;5.18;4.72;;;;;;;;;;5076184;28;20501;-60
2021/07/22 03:23:56;;;;;;;4.72;4.32;;;;;;;;;;5076571;28;20453;-60
2021/07/22 03:26:22;;;;;;;5.03;4.25;;;;;;;;;;5076077;28;20060;-60
2021/07/22 03:28:52;;;;;;;4.70;4.30;;;;;;;;;;5075641;28;20107;-61
2021/07/22 03:31:24;;;;;;;5.63;4.22;;;;;;;;;;5076019;28;20024;-60
2021/07/22 03:34:08;;;;;;;5.18;4.68;;;;;;;;;;5076214;28;20046;-60
2021/07/22 03:36:38;;;;;;;4.78;4.32;;;;;;;;;;5075900;28;20024;-60
2021/07/22 03:39:17;;;;;;;4.95;4.45;;;;;;;;;;5094249;28;20077;-60
2021/07/22 03:41:48;;;;;;;6.35;5.30;;;;;;;;;;5093962;28;20032;-60
2021/07/22 03:44:33;;;;;;;5.47;4.97;;;;;;;;;;5094224;28;20073;-60
2021/07/22 03:46:59;;;;;;;7.07;4.78;;;;;;;;;;5075829;28;20065;-60
2021/07/22 03:49:25;;;;;;;4.78;4.38;;;;;;;;;;5055253;28;20063;-60
2021/07/22 03:51:56;;;;;;;5.85;4.88;;;;;;;;;;5072474;28;20074;-60
2021/07/22 03:54:26;;;;;;;5.38;4.97;;;;;;;;;;5072238;28;20028;-60
2021/07/22 03:56:51;;;;;;;5.28;4.78;;;;;;;;;;5073229;28;20024;-60
2021/07/22 03:59:22;;;;;;;5.88;4.75;;;;;;;;;;5072305;28;20041;-66
2021/07/22 04:01:52;;;;;;;5.65;5.07;;;;;;;;;;5073071;28;20488;-61
2021/07/22 04:04:30;;;;;;;5.63;4.93;;;;;;;;;;5072508;28;20472;-60
2021/07/22 04:06:57;;;;;;;5.68;5.10;;;;;;;;;;5071927;28;20484;-60
2021/07/22 04:09:42;;;;;;;5.97;5.28;;;;;;;;;;5068611;28;20074;-60
2021/07/22 04:12:26;;;;;;;4.97;4.60;;;;;;;;;;5073753;28;20392;-60
2021/07/22 04:15:10;;;;;;;6.38;5.35;;;;;;;;;;5073627;28;20070;-60
2021/07/22 04:17:44;;;;;;;5.20;4.68;;;;;;;;;;5073723;28;20032;-60
2021/07/22 04:20:39;;;;;;;5.25;4.82;;;;;;;;;;5036100;28;20116;-60
2021/07/22 04:23:20;;;;;;;5.32;4.85;;;;;;;;;;5073174;28;20036;-60
2021/07/22 04:26:04;;;;;;;5.90;5.13;;;;;;;;;;5073600;28;20507;-61
2021/07/22 04:28:56;;;;;;;5.80;4.80;;;;;;;;;;5056855;28;20404;-61
2021/07/22 04:31:26;;;;;;;8.57;5.28;;;;;;;;;;5073116;28;20107;-61
2021/07/22 04:34:14;;;;;;;7.38;5.50;;;;;;;;;;5073015;28;20032;-60
2021/07/22 04:36:47;;;;;;;6.07;5.43;;;;;;;;;;5071792;28;20020;-60
2021/07/22 04:39:42;;;;;;;6.82;5.53;;;;;;;;;;5035974;28;20041;-60
2021/07/22 04:42:29;;;;;;;5.40;4.78;;;;;;;;;;5071888;28;20439;-60
2021/07/22 04:45:15;;;;;;;6.15;4.63;;;;;;;;;;5073239;28;20032;-60
2021/07/22 04:48:01;;;;;;;5.55;4.72;;;;;;;;;;5073457;28;20046;-60
2021/07/22 04:50:45;;;;;;;6.68;5.45;;;;;;;;;;5088361;28;20113;-61
2021/07/22 04:53:19;;;;;;;8.73;5.30;;;;;;;;;;5059686;28;20455;-61
2021/07/22 04:55:50;;;;;;;7.45;5.50;;;;;;;;;;5075055;28;20058;-61
2021/07/22 04:58:16;;;;;;;6.30;5.35;;;;;;;;;;5093144;28;20020;-60
2021/07/22 05:00:42;;;;;;;6.88;5.53;;;;;;;;;;5093182;28;20501;-60
2021/07/22 05:03:09;;;;;;;7.18;5.55;;;;;;;;;;5093064;28;20020;-60
2021/07/22 05:05:37;;;;;;;7.22;5.63;;;;;;;;;;5092889;28;20040;-60
2021/07/22 05:08:31;;;;;;;6.38;5.78;;;;;;;;;;5075160;28;20028;-61
2021/07/22 05:11:05;;;;;;;7.72;5.70;;;;;;;;;;5093193;28;20050;-60
2021/07/22 05:13:49;;;;;;;5.78;5.18;;;;;;;;;;5077044;28;20058;-60
2021/07/22 05:16:33;;;;;;;7.38;5.78;;;;;;;;;;5097022;28;20073;-60
2021/07/22 05:19:14;;;;;;;6.88;5.63;;;;;;;;;;5078682;28;20028;-60
2021/07/22 05:21:59;;;;;;;6.15;5.38;;;;;;;;;;5096844;28;20097;-60
2021/07/22 05:24:33;;;;;;;5.95;5.38;;;;;;;;;;5096708;28;20103;-60
2021/07/22 05:27:25;;;;;;;7.57;5.88;;;;;;;;;;5093772;28;20036;-60
2021/07/22 05:30:17;;;;;;;6.60;5.47;;;;;;;;;;5092382;28;20068;-61
2021/07/22 05:32:51;;;;;;;5.95;5.38;;;;;;;;;;5078387;28;20078;-60
2021/07/22 05:35:36;;;;;;;6.47;5.78;;;;;;;;;;5095434;28;20110;-60
2021/07/22 05:38:16;;;;;;;5.80;5.25;;;;;;;;;;5078411;28;20027;-60
2021/07/22 05:40:41;;;;;;;6.03;5.40;;;;;;;;;;5078404;28;20032;-60
2021/07/22 05:43:06;;;;;;;6.68;5.50;;;;;;;;;;5096284;28;20024;-60
2021/07/22 05:45:34;;;;;;;7.28;5.50;;;;;;;;;;5077707;28;21016;-60
2021/07/22 05:47:59;;;;;;;6.15;5.50;;;;;;;;;;5096318;28;20111;-60
2021/07/22 05:50:26;;;;;;;7.03;5.68;;;;;;;;;;5077411;28;20556;-60
2021/07/22 05:52:51;;;;;;;6.75;5.57;;;;;;;;;;5096004;28;20032;-60
2021/07/22 05:55:17;;;;;;;7.72;5.15;;;;;;;;;;5096369;28;20110;-60
2021/07/22 05:57:42;;;;;;;7.57;5.97;;;;;;;;;;5095984;28;20458;-60
2021/07/22 06:00:09;;;;;;;8.00;5.85;;;;;;;;;;5096023;28;20024;-60
2021/07/22 06:02:43;;;;;;;7.97;5.72;;;;;;;;;;5096213;28;20475;-60
2021/07/22 06:05:09;;;;;;;6.90;5.63;;;;;;;;;;5077867;28;20049;-59
2021/07/22 06:07:35;;;;;;;6.97;5.78;;;;;;;;;;5095826;28;20016;-64
2021/07/22 06:10:00;;;;;;;7.35;6.05;;;;;;;;;;5095937;28;20032;-64
2021/07/22 06:12:29;;;;;;;8.48;6.10;;;;;;;;;;5077600;28;20012;-65
2021/07/22 06:14:56;;;;;;;5.88;5.38;;;;;;;;;;5077616;28;20368;-64
2021/07/22 06:17:21;;;;;;;6.97;5.50;;;;;;;;;;5095828;28;20479;-65
2021/07/22 06:19:47;;;;;;;6.97;6.03;;;;;;;;;;5077584;28;20032;-65
2021/07/22 06:22:12;;;;;;;7.05;5.90;;;;;;;;;;5095462;28;20024;-65
2021/07/22 06:24:38;;;;;;;6.80;6.07;;;;;;;;;;5094963;28;20028;-65
2021/07/22 06:27:03;;;;;;;6.38;5.45;;;;;;;;;;5095333;28;20050;-65
2021/07/22 06:29:30;;;;;;;7.25;5.95;;;;;;;;;;5095411;28;20032;-65
2021/07/22 06:31:55;;;;;;;6.03;5.47;;;;;;;;;;5077511;28;20539;-65
2021/07/22 06:34:21;;;;;;;9.23;6.03;;;;;;;;;;5095185;28;20058;-65
2021/07/22 06:36:46;;;;;;;8.55;6.35;;;;;;;;;;5095166;28;20040;-65
2021/07/22 06:39:12;;;;;;;8.23;5.78;;;;;;;;;;5094741;28;20100;-65
2021/07/22 06:41:37;;;;;;;8.77;5.97;;;;;;;;;;5095161;28;20023;-60
2021/07/22 06:44:03;;;;;;;7.45;5.90;;;;;;;;;;5095216;28;20028;-65
2021/07/22 06:46:28;;;;;;;6.97;5.70;;;;;;;;;;5095029;28;20099;-65
2021/07/22 06:48:54;;;;;;;8.48;5.93;;;;;;;;;;5094812;28;20081;-65
2021/07/22 06:51:20;;;;;;;6.78;6.07;;;;;;;;;;5094985;28;20407;-66
2021/07/22 06:53:46;;;;;;;6.78;5.93;;;;;;;;;;5094975;28;20451;-66
2021/07/22 06:56:11;;;;;;;7.30;5.93;;;;;;;;;;5094801;28;20585;-66
2021/07/22 06:58:37;;;;;;;8.52;5.75;;;;;;;;;;5095069;28;20024;-66
2021/07/22 07:01:04;;;;;;;8.57;6.13;;;;;;;;;;5076638;28;20107;-66
2021/07/22 07:03:29;;;;;;;8.15;6.78;;;;;;;;;;5094800;28;20383;-65
2021/07/22 07:05:55;;;;;;;8.13;6.30;;;;;;;;;;5094686;28;20015;-64
2021/07/22 07:08:20;;;;;;;8.85;6.10;;;;;;;;;;5094495;28;20043;-65
2021/07/22 07:10:46;;;;;;;8.45;6.22;;;;;;;;;;5094600;28;20077;-59
2021/07/22 07:13:11;;;;;;;6.43;5.82;;;;;;;;;;5094732;28;20016;-65
2021/07/22 07:15:37;;;;;;;7.05;5.95;;;;;;;;;;5094740;28;20061;-65
2021/07/22 07:18:03;;;;;;;8.20;5.95;;;;;;;;;;5094440;28;20140;-65
2021/07/22 07:20:28;;;;;;;9.80;6.25;;;;;;;;;;5094443;28;20020;-65
2021/07/22 07:22:56;;;;;;;8.68;5.90;;;;;;;;;;5094351;28;20035;-65
2021/07/22 07:25:22;;;;;;;7.90;6.07;;;;;;;;;;5094434;28;20020;-65
2021/07/22 07:27:47;;;;;;;9.32;6.07;;;;;;;;;;5094173;28;20053;-60
2021/07/22 07:30:13;;;;;;;8.20;5.80;;;;;;;;;;5094056;28;20375;-60
2021/07/22 07:32:39;;;;;;;8.38;6.07;;;;;;;;;;5094121;28;20478;-59
2021/07/22 07:35:05;;;;;;;7.85;5.82;;;;;;;;;;5092986;28;20016;-59
2021/07/22 07:37:30;;;;;;;7.80;5.68;;;;;;;;;;5093000;28;20567;-59
2021/07/22 07:39:56;;;;;;;7.03;5.53;;;;;;;;;;5093431;28;20057;-59
2021/07/22 07:42:21;;;;;;;6.18;5.65;;;;;;;;;;5094288;28;20032;-60
2021/07/22 07:44:47;;;;;;;7.20;5.18;;;;;;;;;;5094312;28;20054;-59
2021/07/22 07:47:12;;;;;;;8.70;6.28;;;;;;;;;;5094078;28;20044;-60
2021/07/22 07:49:38;;;;;;;7.20;5.53;;;;;;;;;;5093579;28;20055;-59
2021/07/22 07:52:03;;;;;;;7.30;5.22;;;;;;;;;;5093941;28;20032;-59
2021/07/22 07:54:29;;;;;;;9.00;5.50;;;;;;;;;;5094008;28;20112;-59
2021/07/22 07:56:55;;;;;;;9.60;5.70;;;;;;;;;;5093734;28;20141;-59
2021/07/22 07:59:20;;;;;;;8.40;5.95;;;;;;;;;;5092945;28;20098;-60
2021/07/22 08:01:46;;;;;;;7.70;5.70;;;;;;;;;;5093144;28;20028;-60
2021/07/22 08:04:11;;;;;;;7.35;5.18;;;;;;;;;;5093672;28;20020;-60
2021/07/22 08:06:37;;;;;;;5.88;5.20;;;;;;;;;;5093772;28;20028;-59
2021/07/22 08:09:03;;;;;;;8.15;5.78;;;;;;;;;;5093462;28;20081;-59
2021/07/22 08:11:28;;;;;;;8.95;5.68;;;;;;;;;;5093613;28;20032;-59
2021/07/22 08:13:54;;;;;;;7.38;5.60;;;;;;;;;;5093525;28;20019;-59
2021/07/22 08:16:19;;;;;;;6.50;5.88;;;;;;;;;;5093520;28;20100;-59
2021/07/22 08:18:45;;;;;;;7.65;5.45;;;;;;;;;;5093510;28;20069;-59
2021/07/22 08:21:12;;;;;;;5.93;5.15;;;;;;;;;;5093392;28;20123;-59
2021/07/22 08:23:37;;;;;;;8.15;5.35;;;;;;;;;;5093499;28;20089;-59
2021/07/22 08:26:05;;;;;;;8.73;5.03;;;;;;;;;;5093448;28;20024;-59
2021/07/22 08:28:31;;;;;;;5.82;5.22;;;;;;;;;;5093369;28;20058;-59
2021/07/22 08:30:56;;;;;;;7.13;5.18;;;;;;;;;;5093300;28;20113;-59
2021/07/22 08:33:22;;;;;;;6.30;4.80;;;;;;;;;;5093295;28;20034;-59
2021/07/22 08:35:47;;;;;;;7.80;5.13;;;;;;;;;;5093256;28;20025;-59
2021/07/22 08:38:15;;;;;;;5.75;5.05;;;;;;;;;;5093256;28;20095;-59
2021/07/22 08:40:41;;;;;;;6.05;4.68;;;;;;;;;;5093231;28;20028;-59
2021/07/22 08:43:07;;;;;;;9.18;4.38;;;;;;;;;;5093057;28;20361;-58
2021/07/22 08:45:33;;;;;;;4.88;4.43;;;;;;;;;;5093081;28;20115;-59
2021/07/22 08:47:59;;;;;;;4.65;4.25;;;;;;;;;;5095431;28;20055;-59
2021/07/22 08:50:25;;;;;;;6.43;4.00;;;;;;;;;;5096674;28;20068;-59
2021/07/22 08:52:51;;;;;;;6.55;4.20;;;;;;;;;;5097419;28;20024;-59
2021/07/22 08:55:16;;;;;;;3.72;3.42;;;;;;;;;;5097567;28;20015;-59
2021/07/22 08:57:42;;;;;;;5.32;4.50;;;;;;;;;;5097215;28;20414;-60
2021/07/22 09:00:08;;;;;;;5.03;4.50;;;;;;;;;;5097627;28;20507;-59
2021/07/22 09:02:34;;;;;;;5.13;4.10;;;;;;;;;;5097262;28;20069;-60
2021/07/22 09:05:01;;;;;;;5.00;4.55;;;;;;;;;;5097231;28;20016;-61
2021/07/22 09:07:27;;;;;;;5.05;4.43;;;;;;;;;;5096974;28;20036;-60
2021/07/22 09:10:05;;;;;;;5.38;4.47;;;;;;;;;;5096870;28;20455;-60
2021/07/22 09:12:37;;;;;;;5.72;4.00;;;;;;;;;;5096913;28;20119;-60
2021/07/22 09:15:03;;;;;;;5.00;4.50;;;;;;;;;;5096969;28;20054;-60
2021/07/22 09:17:29;;;;;;;5.13;4.18;;;;;;;;;;5096969;28;20017;-60
2021/07/22 09:19:54;;;;;;;3.78;3.47;;;;;;;;;;5096678;28;20089;-60
2021/07/22 09:22:35;;;;;;;5.05;4.53;;;;;;;;;;5096654;28;20024;-60
2021/07/22 09:25:02;;;;;;;4.82;4.07;;;;;;;;;;5096441;28;20032;-60
2021/07/22 09:27:35;;;;;;;4.55;4.15;;;;;;;;;;5096881;28;20027;-60
2021/07/22 09:30:02;;;;;;;4.60;4.20;;;;;;;;;;5096573;28;20040;-60
2021/07/22 09:32:31;;;;;;;5.65;3.80;;;;;;;;;;5096610;28;20023;-60
2021/07/22 09:35:23;;;;;;;5.40;4.05;;;;;;;;;;5096371;28;20028;-60
2021/07/22 09:37:50;;;;;;;10.25;5.00;;;;;;;;;;5091670;28;20404;-60
2021/07/22 09:40:16;;;;;;;6.93;4.00;;;;;;;;;;5096308;28;20016;-60
2021/07/22 09:42:42;;;;;;;5.95;4.22;;;;;;;;;;5078303;28;20031;-60
2021/07/22 09:45:13;;;;;;;4.15;3.75;;;;;;;;;;5096482;28;20020;-60
2021/07/22 09:47:39;;;;;;;3.80;3.50;;;;;;;;;;5096206;28;20024;-61
2021/07/22 09:50:12;;;;;;;4.95;3.95;;;;;;;;;;5095368;28;20044;-60
2021/07/22 09:52:38;;;;;;;5.82;4.00;;;;;;;;;;5095975;28;20487;-60
2021/07/22 09:55:22;;;;;;;3.80;3.50;;;;;;;;;;5078144;28;20126;-60
2021/07/22 09:57:47;;;;;;;5.18;3.70;;;;;;;;;;5096229;28;20028;-67
2021/07/22 10:00:13;;;;;;;4.13;3.75;;;;;;;;;;5094956;28;20035;-67
2021/07/22 10:02:40;;;;;;;4.97;4.10;;;;;;;;;;5095991;28;20058;-67
2021/07/22 10:05:06;;;;;;;6.03;4.00;;;;;;;;;;5095920;28;20026;-67
2021/07/22 10:07:35;;;;;;;4.10;3.70;;;;;;;;;;5095660;28;20073;-67
2021/07/22 10:10:02;;;;;;;4.60;3.78;;;;;;;;;;5095937;28;20479;-67
2021/07/22 10:12:29;;;;;;;5.00;3.92;;;;;;;;;;5077962;28;20028;-67
2021/07/22 10:14:55;;;;;;;4.20;3.88;;;;;;;;;;5095817;28;20019;-67
2021/07/22 10:17:25;;;;;;;4.28;3.88;;;;;;;;;;5077520;28;20427;-67
2021/07/22 10:19:50;;;;;;;4.10;3.55;;;;;;;;;;5095716;28;20034;-67
2021/07/22 10:22:16;;;;;;;3.72;3.53;;;;;;;;;;5095403;28;20020;-68
2021/07/22 10:24:42;;;;;;;6.32;4.03;;;;;;;;;;5095650;28;20044;-67
2021/07/22 10:27:07;;;;;;;4.80;3.97;;;;;;;;;;5095583;28;20106;-67
2021/07/22 10:29:34;;;;;;;4.18;3.78;;;;;;;;;;5095274;28;20413;-67
2021/07/22 10:32:01;;;;;;;4.57;3.33;;;;;;;;;;5095416;28;20520;-67
2021/07/22 10:34:27;;;;;;;3.90;3.60;;;;;;;;;;5095562;28;20065;-66
2021/07/22 10:36:52;;;;;;;4.40;4.00;;;;;;;;;;5095361;28;20016;-67
2021/07/22 10:39:38;;;;;;;6.75;4.60;;;;;;;;;;5095626;28;20501;-67
2021/07/22 10:42:03;;;;;;;4.82;4.43;;;;;;;;;;5095067;28;20039;-66
2021/07/22 10:44:33;;;;;;;12.07;4.75;;;;;;;;;;5095319;28;20020;-66
2021/07/22 10:46:59;;;;;;;4.18;3.78;;;;;;;;;;5095317;28;20028;-66
2021/07/22 10:49:40;;;;;;;5.63;4.20;;;;;;;;;;5094579;28;20048;-66
2021/07/22 10:52:06;;;;;;;4.93;3.95;;;;;;;;;;5095086;28;20031;-67
2021/07/22 10:54:40;;;;;;;4.40;4.00;;;;;;;;;;5095139;28;20028;-67
2021/07/22 10:57:06;;;;;;;4.65;4.10;;;;;;;;;;5094967;28;20050;-67
2021/07/22 10:59:49;;;;;;;3.58;3.28;;;;;;;;;;5095175;28;20048;-67
2021/07/22 11:02:35;;;;;;;4.20;3.80;;;;;;;;;;5094946;28;20071;-66
2021/07/22 11:05:00;;;;;;;5.85;4.40;;;;;;;;;;5076716;28;20399;-66
2021/07/22 11:07:28;;;;;;;5.07;4.00;;;;;;;;;;5094614;28;20031;-66
2021/07/22 11:09:56;;;;;;;4.05;3.40;;;;;;;;;;5094611;28;20368;-66
2021/07/22 11:12:36;;;;;;;4.20;3.80;;;;;;;;;;5094774;28;20019;-67
2021/07/22 11:15:04;;;;;;;4.30;3.90;;;;;;;;;;5094304;28;20111;-66
2021/07/22 11:17:30;;;;;;;4.15;3.75;;;;;;;;;;5094717;28;20020;-66
2021/07/22 11:20:15;;;;;;;5.85;4.68;;;;;;;;;;5094410;28;20032;-66
2021/07/22 11:22:40;;;;;;;5.38;4.10;;;;;;;;;;5094311;28;20032;-66
2021/07/22 11:25:06;;;;;;;5.55;4.13;;;;;;;;;;5094350;28;20023;-66
2021/07/22 11:27:32;;;;;;;4.90;4.40;;;;;;;;;;5094239;28;20415;-66
2021/07/22 11:30:10;;;;;;;4.47;4.07;;;;;;;;;;5059571;28;20024;-66
2021/07/22 11:32:35;;;;;;;5.20;4.15;;;;;;;;;;5094159;28;20028;-66
2021/07/22 11:35:02;;;;;;;5.10;4.53;;;;;;;;;;5094247;28;20016;-66
2021/07/22 11:37:28;;;;;;;7.03;4.50;;;;;;;;;;5093978;28;20024;-66
2021/07/22 11:39:55;;;;;;;5.30;4.80;;;;;;;;;;5094250;28;20042;-66
2021/07/22 11:42:21;;;;;;;5.65;4.53;;;;;;;;;;5094119;28;20110;-67
2021/07/22 11:44:59;;;;;;;5.60;5.00;;;;;;;;;;5094157;28;20031;-66
2021/07/22 11:47:29;;;;;;;6.82;5.43;;;;;;;;;;5075853;28;20062;-66
2021/07/22 11:49:55;;;;;;;13.03;5.77;;;;;;;;;;5093286;28;20102;-66
2021/07/22 11:52:27;;;;;;;8.70;4.90;;;;;;;;;;5093771;28;20024;-68
2021/07/22 11:55:14;;;;;;;27.67;7.88;;;;;;;;;;5093673;28;20107;-68
2021/07/22 11:57:40;;;;;;;12.30;5.43;;;;;;;;;;5093361;28;20377;-69
2021/07/22 12:00:15;;;;;;;7.65;5.20;;;;;;;;;;5093831;28;20031;-66
2021/07/22 12:02:46;;;;;;;8.90;5.80;;;;;;;;;;5093839;28;20031;-71
2021/07/22 12:05:11;;;;;;;;;;;;;;;;;;5094324;28;20032;-67
2021/07/22 12:07:37;;;;;;;8.45;5.55;;;;;;;;;;5070860;28;19904;-67
2021/07/22 12:10:03;;;;;;;9.52;5.65;;;;;;;;;;5093701;28;20024;-66
2021/07/22 12:12:28;;;;;;;7.15;5.60;;;;;;;;;;5093271;28;20024;-68
2021/07/22 12:15:04;;;;;;;18.13;6.35;;;;;;;;;;5093514;28;20032;-64
2021/07/22 12:17:29;;;;;;;9.70;5.85;;;;;;;;;;5075358;28;20430;-69
2021/07/22 12:19:55;;;;;;;5.78;5.10;;;;;;;;;;5093352;28;20031;-65
2021/07/22 12:22:22;;;;;;;7.72;4.80;;;;;;;;;;5092940;28;20161;-71
2021/07/22 12:24:51;;;;;;;5.57;4.45;;;;;;;;;;5093516;28;20023;-66
2021/07/22 12:27:29;;;;;;;7.45;5.30;;;;;;;;;;5093479;28;20024;-69
2021/07/22 12:29:54;;;;;;;8.50;5.50;;;;;;;;;;5093318;28;20391;-69
2021/07/22 12:32:20;;;;;;;5.50;4.88;;;;;;;;;;5093403;28;20094;-67
2021/07/22 12:34:45;;;;;;;6.80;5.00;;;;;;;;;;5093200;28;20503;-68
2021/07/22 12:37:11;;;;;;;7.00;5.00;;;;;;;;;;5093544;28;20016;-67
2021/07/22 12:39:36;;;;;;;4.60;4.25;;;;;;;;;;5093475;28;20028;-64
2021/07/22 12:42:09;;;;;;;10.30;5.45;;;;;;;;;;5093145;28;20489;-64
2021/07/22 12:44:44;;;;;;;6.30;4.93;;;;;;;;;;5093271;28;20028;-63
2021/07/22 12:47:28;;;;;;;6.03;5.38;;;;;;;;;;5093216;28;20036;-64
2021/07/22 12:49:54;;;;;;;8.80;5.43;;;;;;;;;;5071364;28;20044;-63
2021/07/22 12:52:20;;;;;;;7.03;6.05;;;;;;;;;;5073093;28;20384;-63
2021/07/22 12:54:45;;;;;;;8.10;5.38;;;;;;;;;;5073000;28;20078;-63
2021/07/22 12:57:11;;;;;;;7.50;5.50;;;;;;;;;;5072430;28;20480;-62
2021/07/22 12:59:36;;;;;;;5.50;5.00;;;;;;;;;;5071585;28;20028;-62
2021/07/22 13:02:03;;;;;;;7.07;5.35;;;;;;;;;;5072865;28;20100;-62
2021/07/22 13:04:29;;;;;;;5.00;4.50;;;;;;;;;;5073162;28;20040;-62
2021/07/22 13:06:56;;;;;;;6.95;4.85;;;;;;;;;;5072453;28;20119;-62
2021/07/22 13:09:22;;;;;;;6.80;4.78;;;;;;;;;;5072490;28;20075;-62
2021/07/22 13:11:54;;;;;;;6.47;5.03;;;;;;;;;;5072777;28;20046;-62
2021/07/22 13:14:20;;;;;;;5.47;4.90;;;;;;;;;;5072511;28;20029;-62
2021/07/22 13:16:45;;;;;;;7.90;4.90;;;;;;;;;;5072657;28;20095;-62
2021/07/22 13:19:11;;;;;;;5.82;5.05;;;;;;;;;;5072851;28;20029;-62
2021/07/22 13:21:36;;;;;;;5.55;5.05;;;;;;;;;;5072989;28;20020;-62
2021/07/22 13:24:02;;;;;;;4.72;4.32;;;;;;;;;;5072754;28;20032;-62
2021/07/22 13:26:27;;;;;;;5.68;5.00;;;;;;;;;;5072679;28;20488;-62
2021/07/22 13:28:53;;;;;;;5.47;4.78;;;;;;;;;;5072462;28;20396;-62
2021/07/22 13:31:18;;;;;;;7.55;4.53;;;;;;;;;;5072455;28;20099;-62
2021/07/22 13:33:46;;;;;;;6.47;5.10;;;;;;;;;;5072664;28;20115;-62
2021/07/22 13:36:12;;;;;;;7.10;4.80;;;;;;;;;;5076325;28;20012;-62
2021/07/22 13:38:41;;;;;;;4.68;4.28;;;;;;;;;;5074999;28;20054;-62
2021/07/22 13:41:08;;;;;;;6.15;4.40;;;;;;;;;;5076416;28;20024;-62
2021/07/22 13:43:33;;;;;;;8.65;4.90;;;;;;;;;;5076161;28;20024;-62
2021/07/22 13:45:59;;;;;;;7.75;4.97;;;;;;;;;;5076053;28;20522;-62
2021/07/22 13:48:25;;;;;;;5.45;4.57;;;;;;;;;;5075959;28;20052;-62
2021/07/22 13:50:50;;;;;;;5.03;4.13;;;;;;;;;;5091998;28;20044;-62
2021/07/22 13:53:16;;;;;;;5.10;4.60;;;;;;;;;;5096124;28;20547;-62
2021/07/22 13:55:41;;;;;;;5.70;4.63;;;;;;;;;;5096241;28;20073;-62
2021/07/22 13:58:07;;;;;;;5.65;4.68;;;;;;;;;;5096146;28;20055;-62
2021/07/22 14:00:32;;;;;;;6.07;4.82;;;;;;;;;;5096202;28;20023;-62
2021/07/22 14:03:03;;;;;;;5.20;4.53;;;;;;;;;;5095512;28;20168;-62
2021/07/22 14:05:28;;;;;;;6.85;4.53;;;;;;;;;;5095912;28;20036;-62
2021/07/22 14:07:57;;;;;;;6.00;4.57;;;;;;;;;;5095827;28;20019;-62
2021/07/22 14:10:23;;;;;;;6.55;4.10;;;;;;;;;;5095710;28;20024;-62
2021/07/22 14:12:49;;;;;;;5.15;4.13;;;;;;;;;;5095879;28;20438;-62
2021/07/22 14:15:15;;;;;;;6.35;4.32;;;;;;;;;;5095615;28;20506;-62
2021/07/22 14:17:40;;;;;;;7.70;5.45;;;;;;;;;;5095626;28;20016;-62
2021/07/22 14:20:07;;;;;;;10.80;5.85;;;;;;;;;;5095737;28;20035;-62
2021/07/22 14:22:32;;;;;;;6.43;5.45;;;;;;;;;;5095910;28;20031;-63
2021/07/22 14:24:58;;;;;;;8.25;4.88;;;;;;;;;;5095511;28;20030;-62
2021/07/22 14:27:23;;;;;;;10.70;9.02;;;;;;;;;;5095379;28;20024;-62
2021/07/22 14:29:51;;;;;;;7.20;6.60;;;;;;;;;;5095605;28;20032;-62
2021/07/22 14:32:16;;;;;;;5.78;5.38;;;;;;;;;;5095547;28;20054;-62
2021/07/22 14:34:42;;;;;;;8.27;6.10;;;;;;;;;;5095735;28;20052;-62
2021/07/22 14:37:07;;;;;;;9.02;8.13;;;;;;;;;;5095637;28;20497;-62
2021/07/22 14:39:33;;;;;;;6.82;5.00;;;;;;;;;;5095306;28;20043;-62
2021/07/22 14:41:59;;;;;;;14.38;5.10;;;;;;;;;;5095374;28;20032;-62
2021/07/22 14:44:24;;;;;;;4.07;3.67;;;;;;;;;;5095331;28;20475;-62
2021/07/22 14:46:50;;;;;;;5.20;4.60;;;;;;;;;;5095011;28;20023;-62
2021/07/22 14:49:15;;;;;;;4.43;4.00;;;;;;;;;;5094923;28;20047;-62
2021/07/22 14:51:41;;;;;;;4.53;4.13;;;;;;;;;;5095380;28;20024;-62
2021/07/22 14:54:07;;;;;;;6.50;4.43;;;;;;;;;;5095080;28;20454;-62